createdAt,value
2018-12-03T00:01:32.287Z,1.38
2018-12-03T00:04:08.449Z,1.45
2018-12-03T00:06:38.791Z,1.38
2018-12-03T00:09:09.572Z,1.40
2018-12-03T00:11:39.124Z,1.38
2018-12-03T00:14:09.392Z,1.38
2018-12-03T00:16:39.888Z,1.42
2018-12-03T00:19:09.991Z,1.37
2018-12-03T00:21:40.125Z,1.35
2018-12-03T00:24:09.701Z,1.37
2018-12-03T00:26:39.236Z,1.32
2018-12-03T00:29:09.584Z,1.31
2018-12-03T00:31:39.614Z,1.32
2018-12-03T00:34:09.597Z,1.39
2018-12-03T00:36:39.686Z,1.34
2018-12-03T00:39:09.645Z,1.38
2018-12-03T00:41:39.731Z,1.33
2018-12-03T00:44:09.282Z,1.41
2018-12-03T00:46:38.893Z,1.34
2018-12-03T00:49:08.855Z,1.31
2018-12-03T00:51:38.840Z,1.29
2018-12-03T00:54:09.210Z,1.30
2018-12-03T00:56:39.269Z,1.34
2018-12-03T00:59:09.302Z,1.32
2018-12-03T01:01:38.868Z,1.34
2018-12-03T01:04:08.799Z,1.33
2018-12-03T01:06:38.415Z,1.31
2018-12-03T01:09:09.655Z,1.32
2018-12-03T01:11:39.259Z,1.36
2018-12-03T01:14:08.793Z,1.36
2018-12-03T01:16:38.353Z,1.47
2018-12-03T01:19:08.412Z,1.49
2018-12-03T01:21:38.912Z,1.41
2018-12-03T01:24:08.504Z,1.40
2018-12-03T01:26:38.548Z,1.38
2018-12-03T01:29:08.096Z,1.40
2018-12-03T01:31:43.658Z,1.41
2018-12-03T01:34:13.203Z,1.39
2018-12-03T01:36:43.645Z,1.42
2018-12-03T01:39:13.190Z,1.48
2018-12-03T01:41:43.265Z,1.43
2018-12-03T01:44:13.097Z,1.44
2018-12-03T01:46:42.628Z,1.42
2018-12-03T01:49:12.168Z,1.43
2018-12-03T01:51:45.120Z,1.39
2018-12-03T01:54:14.687Z,1.45
2018-12-03T01:56:44.802Z,1.39
2018-12-03T01:59:14.337Z,1.44
2018-12-03T02:01:44.285Z,1.45
2018-12-03T02:04:13.861Z,1.47
2018-12-03T02:06:43.384Z,1.45
2018-12-03T02:09:12.933Z,1.45
2018-12-03T02:11:43.331Z,1.52
2018-12-03T02:14:14.225Z,1.46
2018-12-03T02:16:44.410Z,1.56
2018-12-03T02:19:13.991Z,1.54
2018-12-03T02:21:43.971Z,1.47
2018-12-03T02:24:13.552Z,1.40
2018-12-03T02:26:44.484Z,1.44
2018-12-03T02:29:15.276Z,1.44
2018-12-03T02:31:45.394Z,1.30
2018-12-03T02:34:16.405Z,1.47
2018-12-03T02:36:46.441Z,1.40
2018-12-03T02:39:17.277Z,1.36
2018-12-03T02:41:48.312Z,1.33
2018-12-03T02:44:20.275Z,1.29
2018-12-03T02:46:51.398Z,1.28
2018-12-03T02:49:23.713Z,1.31
2018-12-03T02:51:55.351Z,1.33
2018-12-03T02:54:24.929Z,1.36
2018-12-03T02:56:56.363Z,1.45
2018-12-03T02:59:28.472Z,1.44
2018-12-03T03:01:59.531Z,1.47
2018-12-03T03:04:34.275Z,1.40
2018-12-03T03:07:04.493Z,1.33
2018-12-03T03:09:34.514Z,1.31
2018-12-03T03:12:06.541Z,1.36
2018-12-03T03:14:36.975Z,1.39
2018-12-03T03:17:07.513Z,1.35
2018-12-03T03:19:37.836Z,1.34
2018-12-03T03:22:08.468Z,1.34
2018-12-03T03:24:39.868Z,1.35
2018-12-03T03:27:10.534Z,1.33
2018-12-03T03:29:40.743Z,1.41
2018-12-03T03:32:11.781Z,1.36
2018-12-03T03:34:42.631Z,1.33
2018-12-03T03:37:13.424Z,1.47
2018-12-03T03:39:43.684Z,1.37
2018-12-03T03:42:14.749Z,1.33
2018-12-03T03:44:45.570Z,1.33
2018-12-03T03:47:15.783Z,1.29
2018-12-03T03:49:46.523Z,1.30
2018-12-03T03:52:16.770Z,1.31
2018-12-03T03:54:47.611Z,1.30
2018-12-03T03:57:17.972Z,1.36
2018-12-03T03:59:48.660Z,1.40
2018-12-03T04:02:18.665Z,1.36
2018-12-03T04:04:49.840Z,1.32
2018-12-03T04:07:20.592Z,1.29
2018-12-03T04:09:50.825Z,1.26
2018-12-03T04:12:21.835Z,1.27
2018-12-03T04:14:52.360Z,1.26
2018-12-03T04:17:22.887Z,1.37
2018-12-03T04:19:56.714Z,1.40
2018-12-03T04:22:28.848Z,1.35
2018-12-03T04:25:00.644Z,1.32
2018-12-03T04:27:31.992Z,1.40
2018-12-03T04:30:02.928Z,1.34
2018-12-03T04:32:32.905Z,1.31
2018-12-03T04:35:03.804Z,1.37
2018-12-03T04:37:35.013Z,1.46
2018-12-03T04:40:05.937Z,1.37
2018-12-03T04:42:36.965Z,1.37
2018-12-03T04:45:10.344Z,1.34
2018-12-03T04:47:41.076Z,1.37
2018-12-03T04:50:17.882Z,1.37
2018-12-03T04:52:48.132Z,1.33
2018-12-03T04:55:18.945Z,1.35
2018-12-03T04:57:49.356Z,1.34
2018-12-03T05:00:19.856Z,1.43
2018-12-03T05:02:52.049Z,1.44
2018-12-03T05:05:23.933Z,1.39
2018-12-03T05:07:53.922Z,1.40
2018-12-03T05:10:25.265Z,1.42
2018-12-03T05:12:55.021Z,1.39
2018-12-03T05:15:25.164Z,1.40
2018-12-03T05:17:56.994Z,1.43
2018-12-03T05:20:29.083Z,1.40
2018-12-03T05:23:01.149Z,1.39
2018-12-03T05:25:31.181Z,1.38
2018-12-03T05:28:02.245Z,1.45
2018-12-03T05:30:32.195Z,1.52
2018-12-03T05:33:03.170Z,1.53
2018-12-03T05:35:34.287Z,1.58
2018-12-03T05:38:05.385Z,1.59
2018-12-03T05:40:35.360Z,1.58
2018-12-03T05:43:07.364Z,1.57
2018-12-03T05:45:37.284Z,1.58
2018-12-03T05:48:07.308Z,1.59
2018-12-03T05:50:41.216Z,1.62
2018-12-03T05:53:12.458Z,1.64
2018-12-03T05:55:43.321Z,1.64
2018-12-03T05:58:14.209Z,1.63
2018-12-03T06:00:44.414Z,1.69
2018-12-03T06:03:15.469Z,1.73
2018-12-03T06:05:45.470Z,1.79
2018-12-03T06:08:16.282Z,1.74
2018-12-03T06:10:46.296Z,1.72
2018-12-03T06:13:17.396Z,1.74
2018-12-03T06:15:47.425Z,1.81
2018-12-03T06:18:18.428Z,1.74
2018-12-03T06:20:49.296Z,1.77
2018-12-03T06:23:19.333Z,1.78
2018-12-03T06:25:51.293Z,1.75
2018-12-03T06:28:23.345Z,1.78
2018-12-03T06:30:55.488Z,1.80
2018-12-03T06:33:25.169Z,1.82
2018-12-03T06:35:55.338Z,1.80
2018-12-03T06:38:25.271Z,1.79
2018-12-03T06:40:56.372Z,1.77
2018-12-03T06:43:25.919Z,1.81
2018-12-03T06:45:58.483Z,1.81
2018-12-03T06:48:28.498Z,1.82
2018-12-03T06:50:59.624Z,1.84
2018-12-03T06:53:32.612Z,1.91
2018-12-03T06:56:03.932Z,1.90
2018-12-03T06:58:33.587Z,1.94
2018-12-03T07:01:06.100Z,1.94
2018-12-03T07:03:36.399Z,1.99
2018-12-03T07:06:06.684Z,2.12
2018-12-03T07:08:37.588Z,2.10
2018-12-03T07:11:08.728Z,2.12
2018-12-03T07:13:39.208Z,2.17
2018-12-03T07:16:09.501Z,2.15
2018-12-03T07:18:39.582Z,2.12
2018-12-03T07:21:10.759Z,2.13
2018-12-03T07:23:41.674Z,2.11
2018-12-03T07:26:11.538Z,2.16
2018-12-03T07:28:42.588Z,2.16
2018-12-03T07:31:12.727Z,2.26
2018-12-03T07:33:43.608Z,2.24
2018-12-03T07:36:14.388Z,2.26
2018-12-03T07:38:44.695Z,2.31
2018-12-03T07:41:15.647Z,2.43
2018-12-03T07:43:45.759Z,2.46
2018-12-03T07:46:16.763Z,2.48
2018-12-03T07:48:50.543Z,2.45
2018-12-03T07:51:20.912Z,2.39
2018-12-03T07:53:52.785Z,2.34
2018-12-03T07:56:23.014Z,2.38
2018-12-03T07:58:52.801Z,2.41
2018-12-03T08:01:24.777Z,2.45
2018-12-03T08:03:54.869Z,2.51
2018-12-03T08:06:25.253Z,2.61
2018-12-03T08:08:55.816Z,2.72
2018-12-03T08:11:25.616Z,2.67
2018-12-03T08:13:55.189Z,2.60
2018-12-03T08:16:25.564Z,2.58
2018-12-03T08:18:56.016Z,2.63
2018-12-03T08:21:25.692Z,2.57
2018-12-03T08:24:03.031Z,2.61
2018-12-03T08:26:33.105Z,2.61
2018-12-03T08:29:04.124Z,2.62
2018-12-03T08:31:34.993Z,2.61
2018-12-03T08:34:05.181Z,2.55
2018-12-03T08:36:36.043Z,2.53
2018-12-03T08:39:09.844Z,2.52
2018-12-03T08:41:40.246Z,2.49
2018-12-03T08:44:10.221Z,2.50
2018-12-03T08:47:17.573Z,2.57
2018-12-03T08:49:48.204Z,2.58
2018-12-03T08:52:19.217Z,2.56
2018-12-03T08:54:49.789Z,2.64
2018-12-03T08:57:20.070Z,2.55
2018-12-03T08:59:51.056Z,2.61
2018-12-03T09:02:21.106Z,2.63
2018-12-03T09:04:53.218Z,2.67
2018-12-03T09:07:23.429Z,2.73
2018-12-03T09:09:53.805Z,2.85
2018-12-03T09:12:24.143Z,2.97
2018-12-03T09:14:55.293Z,2.98
2018-12-03T09:17:25.903Z,3.07
2018-12-03T09:19:56.526Z,3.11
2018-12-03T09:22:32.157Z,3.18
2018-12-03T09:25:06.785Z,3.22
2018-12-03T09:27:38.168Z,3.31
2018-12-03T09:30:08.406Z,3.34
2018-12-03T09:32:39.506Z,3.39
2018-12-03T09:35:10.055Z,3.29
2018-12-03T09:37:40.366Z,3.20
2018-12-03T09:40:42.034Z,3.15
2018-12-03T09:43:14.292Z,3.17
2018-12-03T09:45:44.349Z,3.16
2018-12-03T09:48:15.404Z,3.09
2018-12-03T09:50:45.516Z,3.04
2018-12-03T09:53:16.513Z,3.02
2018-12-03T09:55:46.548Z,3.11
2018-12-03T09:58:22.060Z,3.09
2018-12-03T10:00:54.245Z,3.14
2018-12-03T10:03:27.276Z,3.09
2018-12-03T10:06:01.437Z,3.21
2018-12-03T10:08:32.624Z,3.25
2018-12-03T10:11:03.673Z,3.25
2018-12-03T10:13:35.553Z,3.28
2018-12-03T10:16:06.642Z,3.36
2018-12-03T10:18:36.345Z,3.49
2018-12-03T10:21:07.648Z,3.51
2018-12-03T10:23:38.447Z,3.58
2018-12-03T10:26:11.155Z,3.59
2018-12-03T10:28:42.517Z,3.69
2018-12-03T10:31:14.675Z,3.76
2018-12-03T10:33:44.298Z,3.83
2018-12-03T10:36:14.675Z,3.92
2018-12-03T10:38:48.025Z,3.98
2018-12-03T10:44:05.105Z,4.14
2018-12-03T10:46:35.483Z,4.23
2018-12-03T10:49:08.884Z,4.26
2018-12-03T10:51:39.781Z,4.36
2018-12-03T10:54:09.583Z,4.46
2018-12-03T10:56:40.662Z,4.39
2018-12-03T10:59:11.471Z,4.34
2018-12-03T11:01:50.806Z,4.33
2018-12-03T11:04:27.048Z,4.24
2018-12-03T11:06:57.148Z,4.25
2018-12-03T11:09:33.129Z,4.27
2018-12-03T11:11:59.837Z,4.37
2018-12-03T11:14:32.981Z,4.33
2018-12-03T11:17:04.055Z,4.34
2018-12-03T11:19:34.705Z,4.28
2018-12-03T11:22:04.701Z,4.26
2018-12-03T11:24:38.829Z,4.32
2018-12-03T11:27:08.660Z,4.39
2018-12-03T11:29:40.731Z,4.47
2018-12-03T11:32:10.985Z,4.53
2018-12-03T11:34:42.865Z,4.68
2018-12-03T11:37:16.662Z,4.83
2018-12-03T11:39:54.695Z,4.89
2018-12-03T11:42:28.160Z,4.94
2018-12-03T11:44:58.854Z,5.07
2018-12-03T11:47:28.933Z,5.16
2018-12-03T11:50:00.779Z,5.26
2018-12-03T11:52:31.795Z,5.31
2018-12-03T11:55:01.890Z,5.32
2018-12-03T11:57:31.864Z,5.31
2018-12-03T12:00:03.149Z,5.24
2018-12-03T12:02:33.173Z,5.25
2018-12-03T12:05:05.837Z,5.12
2018-12-03T12:07:42.323Z,5.04
2018-12-03T12:10:12.173Z,4.98
2018-12-03T12:12:41.931Z,5.01
2018-12-03T12:15:13.455Z,5.11
2018-12-03T12:17:45.991Z,5.03
2018-12-03T12:20:16.001Z,5.04
2018-12-03T12:22:47.131Z,5.19
2018-12-03T12:25:19.287Z,5.33
2018-12-03T12:27:56.767Z,5.40
2018-12-03T12:30:26.433Z,5.40
2018-12-03T12:32:56.231Z,5.38
2018-12-03T12:35:25.937Z,5.34
2018-12-03T12:37:56.966Z,5.24
2018-12-03T12:40:26.568Z,5.25
2018-12-03T12:42:58.078Z,5.23
2018-12-03T12:45:35.822Z,5.18
2018-12-03T12:48:06.275Z,5.27
2018-12-03T12:50:36.378Z,5.24
2018-12-03T12:53:07.476Z,5.31
2018-12-03T12:55:38.341Z,5.38
2018-12-03T12:58:09.282Z,5.61
2018-12-03T13:00:40.422Z,5.84
2018-12-03T13:03:10.364Z,5.84
2018-12-03T13:05:41.150Z,5.94
2018-12-03T13:08:11.632Z,5.89
2018-12-03T13:10:42.349Z,5.73
2018-12-03T13:13:13.285Z,5.74
2018-12-03T13:15:45.336Z,5.73
2018-12-03T13:18:18.191Z,5.62
2018-12-03T13:20:51.924Z,5.56
2018-12-03T13:23:24.404Z,5.44
2018-12-03T13:25:55.445Z,5.34
2018-12-03T13:28:25.439Z,5.43
2018-12-03T13:30:55.353Z,5.36
2018-12-03T13:33:25.907Z,5.32
2018-12-03T13:35:57.489Z,5.37
2018-12-03T13:38:29.367Z,5.47
2018-12-03T13:41:01.404Z,5.55
2018-12-03T13:43:32.000Z,5.42
2018-12-03T13:46:02.411Z,5.35
2018-12-03T13:48:32.648Z,5.15
2018-12-03T13:51:04.036Z,5.08
2018-12-03T13:53:34.693Z,5.15
2018-12-03T13:56:05.669Z,4.97
2018-12-03T13:58:36.186Z,4.81
2018-12-03T14:01:06.581Z,4.75
2018-12-03T14:03:38.757Z,4.61
2018-12-03T14:06:25.717Z,4.55
2018-12-03T14:11:41.225Z,4.52
2018-12-03T14:15:28.048Z,4.60
2018-12-03T14:18:14.405Z,4.80
2018-12-03T14:20:48.100Z,4.79
2018-12-03T14:23:30.102Z,4.80
2018-12-03T14:26:03.478Z,4.83
2018-12-03T14:28:34.657Z,4.81
2018-12-03T14:31:05.782Z,4.78
2018-12-03T14:33:36.820Z,4.74
2018-12-03T14:36:07.137Z,4.76
2018-12-03T14:38:37.610Z,4.72
2018-12-03T14:41:07.797Z,4.76
2018-12-03T14:43:38.763Z,4.66
2018-12-03T14:46:08.789Z,4.62
2018-12-03T14:48:39.721Z,4.59
2018-12-03T14:51:10.926Z,4.64
2018-12-03T14:53:44.544Z,4.57
2018-12-03T14:56:14.843Z,4.54
2018-12-03T14:58:44.683Z,4.55
2018-12-03T15:01:15.616Z,4.52
2018-12-03T15:03:46.775Z,4.49
2018-12-03T15:06:16.814Z,4.51
2018-12-03T15:08:47.824Z,4.51
2018-12-03T15:11:21.598Z,4.45
2018-12-03T15:13:57.894Z,4.48
2018-12-03T15:16:29.930Z,4.44
2018-12-03T15:19:02.704Z,4.43
2018-12-03T15:21:32.929Z,4.40
2018-12-03T15:24:04.013Z,4.40
2018-12-03T15:26:35.888Z,4.38
2018-12-03T15:29:06.781Z,4.34
2018-12-03T15:31:38.906Z,4.34
2018-12-03T15:34:09.924Z,4.27
2018-12-03T15:36:40.958Z,4.25
2018-12-03T15:39:11.989Z,4.26
2018-12-03T15:41:44.080Z,4.27
2018-12-03T15:44:14.776Z,4.22
2018-12-03T15:46:44.930Z,4.21
2018-12-03T15:49:16.888Z,4.20
2018-12-03T15:51:46.983Z,4.23
2018-12-03T15:54:20.377Z,4.20
2018-12-03T15:56:50.704Z,4.21
2018-12-03T15:59:21.589Z,4.20
2018-12-03T16:01:52.016Z,4.18
2018-12-03T16:04:22.844Z,4.13
2018-12-03T16:06:52.980Z,4.23
2018-12-03T16:09:23.070Z,4.15
2018-12-03T16:11:54.812Z,4.22
2018-12-03T16:14:25.584Z,4.13
2018-12-03T16:16:56.187Z,4.11
2018-12-03T16:19:26.357Z,4.03
2018-12-03T16:21:56.739Z,3.95
2018-12-03T16:24:26.355Z,3.89
2018-12-03T16:26:57.028Z,3.91
2018-12-03T16:29:26.777Z,3.86
2018-12-03T16:31:57.214Z,3.83
2018-12-03T16:34:26.785Z,3.85
2018-12-03T16:36:59.078Z,3.86
2018-12-03T16:39:30.123Z,3.90
2018-12-03T16:42:00.173Z,3.91
2018-12-03T16:44:30.261Z,3.83
2018-12-03T16:47:01.252Z,3.84
2018-12-03T16:49:32.404Z,3.84
2018-12-03T16:52:02.302Z,3.82
2018-12-03T16:54:32.403Z,3.79
2018-12-03T16:57:03.273Z,3.80
2018-12-03T16:59:35.310Z,3.69
2018-12-03T17:02:05.358Z,3.66
2018-12-03T17:04:35.286Z,3.64
2018-12-03T17:07:05.377Z,3.60
2018-12-03T17:09:35.359Z,3.57
2018-12-03T17:12:06.516Z,3.55
2018-12-03T17:14:39.328Z,3.53
2018-12-03T17:17:10.271Z,3.48
2018-12-03T17:19:41.512Z,3.48
2018-12-03T17:22:32.712Z,3.48
2018-12-03T17:25:03.744Z,3.46
2018-12-03T17:27:37.227Z,3.47
2018-12-03T17:30:08.710Z,3.46
2018-12-03T17:32:41.495Z,3.43
2018-12-03T17:35:12.452Z,3.42
2018-12-03T17:37:42.490Z,3.53
2018-12-03T17:40:14.305Z,3.49
2018-12-03T17:42:43.999Z,3.54
2018-12-03T17:45:14.684Z,3.47
2018-12-03T17:47:45.499Z,3.47
2018-12-03T17:50:16.527Z,3.42
2018-12-03T17:52:47.675Z,3.43
2018-12-03T17:55:17.728Z,3.42
2018-12-03T17:57:48.528Z,3.48
2018-12-03T18:00:18.458Z,3.47
2018-12-03T18:02:48.614Z,3.44
2018-12-03T18:05:19.592Z,3.45
2018-12-03T18:07:49.520Z,3.48
2018-12-03T18:10:20.703Z,3.44
2018-12-03T18:12:50.665Z,3.52
2018-12-03T18:15:21.539Z,3.48
2018-12-03T18:17:53.817Z,3.48
2018-12-03T18:20:25.705Z,3.44
2018-12-03T18:22:56.167Z,3.41
2018-12-03T18:25:26.678Z,3.43
2018-12-03T18:27:56.780Z,3.40
2018-12-03T18:30:26.545Z,3.44
2018-12-03T18:32:57.820Z,3.46
2018-12-03T18:35:28.576Z,3.48
2018-12-03T18:37:59.104Z,3.47
2018-12-03T18:40:29.708Z,3.51
2018-12-03T18:43:00.154Z,3.57
2018-12-03T18:45:30.732Z,3.54
2018-12-03T18:48:01.385Z,3.56
2018-12-03T18:50:34.888Z,3.48
2018-12-03T18:53:27.765Z,3.50
2018-12-03T18:55:59.889Z,3.55
2018-12-03T18:59:10.951Z,3.50
2018-12-03T19:01:41.976Z,3.54
2018-12-03T19:04:13.283Z,3.54
2018-12-03T19:06:44.874Z,3.61
2018-12-03T19:09:17.031Z,3.59
2018-12-03T19:11:47.368Z,3.56
2018-12-03T19:14:24.943Z,3.55
2018-12-03T19:16:58.136Z,3.59
2018-12-03T19:19:29.829Z,3.58
2018-12-03T19:22:01.042Z,3.57
2018-12-03T19:24:33.069Z,3.60
2018-12-03T19:27:03.441Z,3.58
2018-12-03T19:29:38.764Z,3.59
2018-12-03T19:32:09.841Z,3.74
2018-12-03T19:34:41.782Z,3.70
2018-12-03T19:37:13.886Z,3.69
2018-12-03T19:39:44.309Z,3.74
2018-12-03T19:42:14.847Z,3.71
2018-12-03T19:44:44.848Z,3.71
2018-12-03T19:47:15.967Z,3.73
2018-12-03T19:49:46.447Z,3.75
2018-12-03T19:52:17.235Z,3.78
2018-12-03T19:54:47.923Z,3.88
2018-12-03T19:57:22.766Z,3.84
2018-12-03T20:00:00.894Z,3.85
2018-12-03T20:02:30.109Z,3.87
2018-12-03T20:05:06.085Z,3.92
2018-12-03T20:07:35.702Z,3.91
2018-12-03T20:10:07.367Z,3.92
2018-12-03T20:12:38.362Z,3.97
2018-12-03T20:15:08.832Z,3.95
2018-12-03T20:17:40.656Z,3.96
2018-12-03T20:20:19.580Z,3.98
2018-12-03T20:23:01.277Z,4.03
2018-12-03T20:25:40.131Z,3.99
2018-12-03T20:28:14.604Z,4.08
2018-12-03T20:34:03.709Z,4.11
2018-12-03T20:36:51.481Z,4.18
2018-12-03T20:41:33.048Z,4.23
2018-12-03T20:45:18.952Z,4.33
2018-12-03T20:47:53.102Z,4.31
2018-12-03T20:50:44.165Z,4.32
2018-12-03T20:53:18.406Z,4.38
2018-12-03T20:55:48.903Z,4.37
2018-12-03T20:58:25.919Z,4.39
2018-12-03T21:00:55.758Z,4.47
2018-12-03T21:03:27.697Z,4.52
2018-12-03T21:06:05.589Z,4.55
2018-12-03T21:08:36.318Z,4.53
2018-12-03T21:11:06.567Z,4.59
2018-12-03T21:13:36.504Z,4.65
2018-12-03T21:16:08.038Z,4.67
2018-12-03T21:18:38.669Z,4.68
2018-12-03T21:21:10.302Z,4.65
2018-12-03T21:23:39.887Z,4.67
2018-12-03T21:26:10.378Z,4.67
2018-12-03T21:28:41.485Z,4.68
2018-12-03T21:31:11.703Z,4.71
2018-12-03T21:33:42.330Z,4.75
2018-12-03T21:36:13.385Z,4.60
2018-12-03T21:38:43.779Z,4.54
2018-12-03T21:41:15.239Z,4.46
2018-12-03T21:43:50.778Z,4.42
2018-12-03T21:46:21.452Z,4.38
2018-12-03T21:48:52.565Z,4.32
2018-12-03T21:51:25.542Z,4.29
2018-12-03T21:53:56.613Z,4.29
2018-12-03T21:56:26.737Z,4.33
2018-12-03T21:58:58.602Z,4.31
2018-12-03T22:01:30.621Z,4.31
2018-12-03T22:04:00.688Z,4.36
2018-12-03T22:06:30.721Z,4.32
2018-12-03T22:09:01.708Z,4.27
2018-12-03T22:11:32.003Z,4.23
2018-12-03T22:14:02.793Z,4.25
2018-12-03T22:16:38.895Z,4.19
2018-12-03T22:19:11.848Z,4.19
2018-12-03T22:21:45.471Z,4.12
2018-12-03T22:24:20.634Z,4.08
2018-12-03T22:26:54.016Z,4.03
2018-12-03T22:29:30.059Z,4.01
2018-12-03T22:32:05.606Z,4.03
2018-12-03T22:34:36.951Z,4.04
2018-12-03T22:37:07.685Z,4.23
2018-12-03T22:39:39.393Z,4.27
2018-12-03T22:42:11.869Z,4.26
2018-12-03T22:44:46.919Z,4.22
2018-12-03T22:47:17.847Z,4.23
2018-12-03T22:49:48.776Z,4.26
2018-12-03T22:52:20.725Z,4.26
2018-12-03T22:54:52.396Z,4.34
2018-12-03T22:57:22.916Z,4.34
2018-12-03T22:59:53.830Z,4.36
2018-12-03T23:02:24.693Z,4.35
2018-12-03T23:04:55.048Z,4.38
2018-12-03T23:07:25.980Z,4.40
2018-12-03T23:09:55.941Z,4.42
2018-12-03T23:12:26.909Z,4.43
2018-12-03T23:14:57.074Z,4.49
2018-12-03T23:17:26.732Z,4.49
2018-12-03T23:19:56.941Z,4.49
2018-12-03T23:22:27.656Z,4.59
2018-12-03T23:25:05.245Z,4.70
2018-12-03T23:27:36.133Z,4.74
2018-12-03T23:30:07.581Z,4.66
2018-12-03T23:32:38.987Z,4.67
2018-12-03T23:35:10.766Z,4.60
2018-12-03T23:37:41.322Z,4.59
2018-12-03T23:40:12.204Z,4.61
2018-12-03T23:42:42.689Z,4.60
2018-12-03T23:45:13.125Z,4.62
2018-12-03T23:47:43.721Z,4.66
2018-12-03T23:50:14.584Z,4.67
2018-12-03T23:52:45.160Z,4.64
2018-12-03T23:55:15.904Z,4.63
2018-12-03T23:57:46.521Z,4.65
